createdAt,value
2023-05-05T00:01:33.546Z,2.60
2023-05-05T00:04:00.643Z,2.90
2023-05-05T00:06:31.515Z,2.90
2023-05-05T00:08:58.615Z,2.87
2023-05-05T00:11:28.544Z,2.63
2023-05-05T00:13:55.506Z,2.60
2023-05-05T00:16:23.686Z,2.90
2023-05-05T00:18:51.083Z,2.63
2023-05-05T00:21:17.938Z,2.40
2023-05-05T00:23:45.133Z,2.60
2023-05-05T00:26:13.466Z,2.53
2023-05-05T00:28:40.455Z,2.37
2023-05-05T00:31:07.828Z,2.70
2023-05-05T00:33:35.084Z,3.00
2023-05-05T00:36:02.122Z,2.30
2023-05-05T00:38:29.132Z,2.23
2023-05-05T00:40:56.066Z,2.10
2023-05-05T00:43:22.930Z,2.97
2023-05-05T00:45:59.968Z,3.07
2023-05-05T00:48:28.904Z,2.40
2023-05-05T00:50:56.002Z,2.20
2023-05-05T00:53:23.485Z,2.40
2023-05-05T00:55:51.393Z,2.40
2023-05-05T00:58:21.225Z,2.60
2023-05-05T01:00:49.098Z,2.40
2023-05-05T01:03:16.075Z,2.50
2023-05-05T01:06:06.447Z,2.53
2023-05-05T01:08:47.142Z,2.50
2023-05-05T01:11:26.851Z,2.10
2023-05-05T01:14:07.504Z,2.57
2023-05-05T01:16:37.292Z,2.37
2023-05-05T01:19:15.829Z,2.23
2023-05-05T01:21:57.475Z,2.33
2023-05-05T01:24:50.384Z,2.57
2023-05-05T01:27:45.140Z,2.60
2023-05-05T01:30:17.730Z,2.37
2023-05-05T01:32:51.415Z,2.37
2023-05-05T01:35:20.964Z,2.53
2023-05-05T01:38:15.201Z,2.27
2023-05-05T01:41:11.257Z,2.30
2023-05-05T01:43:40.102Z,2.90
2023-05-05T01:46:09.136Z,2.40
2023-05-05T01:48:37.448Z,2.87
2023-05-05T01:51:06.719Z,2.70
2023-05-05T01:53:34.755Z,2.70
2023-05-05T01:56:03.045Z,2.40
2023-05-05T01:58:31.178Z,3.03
2023-05-05T02:00:58.766Z,2.73
2023-05-05T02:03:27.704Z,2.70
2023-05-05T02:05:55.726Z,2.90
2023-05-05T02:08:23.998Z,2.80
2023-05-05T02:10:52.252Z,3.00
2023-05-05T02:13:22.206Z,2.70
2023-05-05T02:15:51.218Z,2.70
2023-05-05T02:18:19.675Z,3.10
2023-05-05T02:20:47.296Z,2.50
2023-05-05T02:23:14.332Z,3.13
2023-05-05T02:25:44.607Z,3.03
2023-05-05T02:28:21.351Z,3.13
2023-05-05T02:30:56.113Z,3.17
2023-05-05T02:33:25.744Z,3.07
2023-05-05T02:35:54.804Z,3.10
2023-05-05T02:38:26.525Z,3.10
2023-05-05T02:40:57.918Z,3.00
2023-05-05T02:43:26.269Z,2.90
2023-05-05T02:45:53.308Z,2.80
2023-05-05T02:48:20.376Z,3.30
2023-05-05T02:50:47.205Z,3.43
2023-05-05T02:53:14.336Z,3.20
2023-05-05T02:56:05.905Z,3.37
2023-05-05T02:58:54.948Z,3.00
2023-05-05T03:01:40.013Z,3.03
2023-05-05T03:04:10.569Z,3.80
2023-05-05T03:06:42.709Z,3.17
2023-05-05T03:09:32.648Z,3.20
2023-05-05T03:12:03.967Z,3.43
2023-05-05T03:14:37.024Z,3.37
2023-05-05T03:17:05.536Z,3.60
2023-05-05T03:19:32.574Z,3.77
2023-05-05T03:21:59.719Z,3.60
2023-05-05T03:24:26.526Z,3.83
2023-05-05T03:29:41.405Z,3.83
2023-05-05T03:32:08.429Z,3.87
2023-05-05T03:34:37.681Z,3.60
2023-05-05T03:37:04.809Z,3.70
2023-05-05T03:39:31.767Z,3.63
2023-05-05T03:41:58.658Z,3.57
2023-05-05T03:44:25.566Z,3.60
2023-05-05T03:46:52.473Z,3.53
2023-05-05T03:49:19.292Z,3.80
2023-05-05T03:51:47.601Z,3.87
2023-05-05T03:54:15.164Z,4.10
2023-05-05T03:56:42.243Z,4.13
2023-05-05T03:59:10.348Z,3.80
2023-05-05T04:01:37.474Z,3.80
2023-05-05T04:04:04.893Z,3.70
2023-05-05T04:06:32.406Z,4.40
2023-05-05T04:08:59.482Z,3.93
2023-05-05T04:11:26.400Z,4.17
2023-05-05T04:13:53.388Z,4.00
2023-05-05T04:16:20.419Z,4.57
2023-05-05T04:18:47.867Z,4.93
2023-05-05T04:21:15.142Z,4.80
2023-05-05T04:23:42.078Z,5.00
2023-05-05T04:26:08.977Z,5.13
2023-05-05T04:28:36.025Z,5.00
2023-05-05T04:31:05.277Z,5.47
2023-05-05T04:33:32.450Z,6.13
2023-05-05T04:35:59.253Z,5.47
2023-05-05T04:38:26.297Z,6.30
2023-05-05T04:40:53.348Z,5.67
2023-05-05T04:43:20.397Z,5.70
2023-05-05T04:45:56.224Z,5.63
2023-05-05T04:48:23.196Z,5.53
2023-05-05T04:50:52.704Z,5.60
2023-05-05T04:53:19.826Z,6.10
2023-05-05T04:55:46.873Z,5.70
2023-05-05T04:58:14.032Z,5.80
2023-05-05T05:00:41.195Z,5.23
2023-05-05T05:03:08.711Z,5.67
2023-05-05T05:05:35.824Z,5.60
2023-05-05T05:08:02.835Z,5.63
2023-05-05T05:10:30.209Z,5.00
2023-05-05T05:12:57.151Z,5.60
2023-05-05T05:15:24.261Z,5.90
2023-05-05T05:17:51.341Z,5.83
2023-05-05T05:20:21.131Z,6.83
2023-05-05T05:22:48.095Z,6.77
2023-05-05T05:25:15.500Z,6.60
2023-05-05T05:27:42.530Z,6.80
2023-05-05T05:30:10.134Z,7.20
2023-05-05T05:32:37.259Z,5.83
2023-05-05T05:35:04.596Z,6.23
2023-05-05T05:37:31.785Z,6.43
2023-05-05T05:39:58.880Z,6.00
2023-05-05T05:42:26.239Z,6.40
2023-05-05T05:44:53.355Z,5.00
2023-05-05T05:47:20.232Z,5.43
2023-05-05T05:49:47.100Z,5.73
2023-05-05T05:52:14.554Z,5.10
2023-05-05T05:54:41.547Z,5.30
2023-05-05T05:57:08.608Z,4.67
2023-05-05T05:59:35.604Z,4.87
2023-05-05T06:02:04.744Z,4.80
2023-05-05T06:04:31.925Z,4.53
2023-05-05T06:07:02.196Z,4.87
2023-05-05T06:09:29.239Z,4.27
2023-05-05T06:11:56.234Z,4.73
2023-05-05T06:14:23.283Z,4.80
2023-05-05T06:16:50.987Z,5.00
2023-05-05T06:19:18.186Z,5.00
2023-05-05T06:21:45.148Z,5.17
2023-05-05T06:24:12.314Z,5.40
2023-05-05T06:26:39.275Z,5.00
2023-05-05T06:29:06.359Z,4.80
2023-05-05T06:31:33.313Z,5.10
2023-05-05T06:34:00.351Z,4.90
2023-05-05T06:36:28.454Z,5.33
2023-05-05T06:38:55.537Z,4.63
2023-05-05T06:41:22.715Z,4.73
2023-05-05T06:43:49.763Z,4.27
2023-05-05T06:46:16.857Z,4.40
2023-05-05T06:48:44.051Z,4.70
2023-05-05T06:51:10.934Z,5.10
2023-05-05T06:53:37.946Z,4.80
2023-05-05T06:56:05.327Z,4.50
2023-05-05T06:58:32.403Z,4.90
2023-05-05T07:00:59.358Z,4.73
2023-05-05T07:03:28.394Z,4.93
2023-05-05T07:05:55.682Z,4.83
2023-05-05T07:08:22.719Z,5.10
2023-05-05T07:10:50.012Z,5.30
2023-05-05T07:13:17.763Z,5.17
2023-05-05T07:15:46.808Z,5.37
2023-05-05T07:18:16.301Z,4.87
2023-05-05T07:20:44.577Z,4.43
2023-05-05T07:23:11.499Z,5.20
2023-05-05T07:25:39.005Z,4.63
2023-05-05T07:28:06.143Z,4.87
2023-05-05T07:30:33.027Z,5.10
2023-05-05T07:33:00.003Z,4.73
2023-05-05T07:35:28.013Z,5.10
2023-05-05T07:37:54.944Z,4.50
2023-05-05T07:40:22.141Z,4.60
2023-05-05T07:42:49.152Z,5.10
2023-05-05T07:45:16.222Z,5.10
2023-05-05T07:47:43.157Z,4.90
2023-05-05T07:50:10.764Z,5.00
2023-05-05T07:52:48.218Z,4.80
2023-05-05T07:55:20.928Z,4.70
2023-05-05T07:57:48.128Z,4.73
2023-05-05T08:00:15.616Z,5.03
2023-05-05T08:02:42.724Z,4.53
2023-05-05T08:05:10.063Z,4.43
2023-05-05T08:07:41.620Z,4.77
2023-05-05T08:10:11.279Z,4.37
2023-05-05T08:12:38.545Z,4.77
2023-05-05T08:15:06.461Z,4.50
2023-05-05T08:17:53.171Z,5.03
2023-05-05T08:20:21.314Z,4.93
2023-05-05T08:22:48.706Z,4.97
2023-05-05T08:25:16.050Z,5.00
2023-05-05T08:27:43.465Z,5.50
2023-05-05T08:30:11.058Z,4.97
2023-05-05T08:32:38.777Z,4.80
2023-05-05T08:35:06.851Z,4.70
2023-05-05T08:37:34.440Z,5.30
2023-05-05T08:40:01.701Z,5.20
2023-05-05T08:42:37.894Z,4.80
2023-05-05T08:45:07.165Z,5.00
2023-05-05T08:47:35.828Z,4.70
2023-05-05T08:50:03.492Z,4.90
2023-05-05T08:52:40.209Z,4.30
2023-05-05T08:55:26.985Z,9.70
2023-05-05T08:57:58.228Z,4.70
2023-05-05T09:00:29.350Z,6.33
2023-05-05T09:03:01.790Z,4.70
2023-05-05T09:05:29.070Z,4.40
2023-05-05T09:07:56.152Z,4.40
2023-05-05T09:10:25.629Z,4.50
2023-05-05T09:12:52.909Z,4.60
2023-05-05T09:15:20.039Z,5.27
2023-05-05T09:17:47.568Z,5.20
2023-05-05T09:20:15.322Z,5.00
2023-05-05T09:22:44.511Z,7.57
2023-05-05T09:25:18.665Z,4.83
2023-05-05T09:27:48.615Z,5.50
2023-05-05T09:30:26.416Z,4.57
2023-05-05T09:32:55.080Z,6.10
2023-05-05T09:35:23.483Z,7.57
2023-05-05T09:37:50.656Z,5.27
2023-05-05T09:40:19.759Z,5.10
2023-05-05T09:42:47.647Z,5.07
2023-05-05T09:45:20.412Z,5.50
2023-05-05T09:47:48.335Z,5.30
2023-05-05T09:50:18.630Z,5.20
2023-05-05T09:53:03.089Z,4.53
2023-05-05T09:55:33.208Z,4.97
2023-05-05T09:58:28.487Z,4.63
2023-05-05T10:00:56.801Z,5.00
2023-05-05T10:03:24.435Z,5.10
2023-05-05T10:06:01.424Z,5.13
2023-05-05T10:08:34.488Z,5.43
2023-05-05T10:11:07.389Z,5.53
2023-05-05T10:13:37.961Z,5.00
2023-05-05T10:16:08.727Z,4.40
2023-05-05T10:18:37.167Z,5.07
2023-05-05T10:21:04.534Z,5.17
2023-05-05T10:23:49.489Z,4.67
2023-05-05T10:26:20.042Z,4.73
2023-05-05T10:28:58.227Z,4.73
2023-05-05T10:31:30.338Z,4.47
2023-05-05T10:34:06.361Z,4.90
2023-05-05T10:36:34.512Z,4.70
2023-05-05T10:39:02.840Z,4.73
2023-05-05T10:41:31.660Z,4.67
2023-05-05T10:44:01.383Z,4.33
2023-05-05T10:46:30.406Z,4.60
2023-05-05T10:49:35.894Z,5.30
2023-05-05T10:52:23.885Z,4.60
2023-05-05T10:55:13.548Z,4.57
2023-05-05T10:57:42.926Z,4.30
2023-05-05T11:00:11.605Z,4.47
2023-05-05T11:02:40.468Z,3.90
2023-05-05T11:05:15.386Z,4.30
2023-05-05T11:07:43.816Z,4.53
2023-05-05T11:10:13.302Z,4.40
2023-05-05T11:12:52.732Z,4.23
2023-05-05T11:15:31.816Z,7.33
2023-05-05T11:18:07.331Z,5.07
2023-05-05T11:20:40.030Z,4.50
2023-05-05T11:23:07.286Z,3.77
2023-05-05T11:25:41.239Z,4.20
2023-05-05T11:28:08.651Z,4.50
2023-05-05T11:30:59.769Z,4.47
2023-05-05T11:33:37.860Z,5.20
2023-05-05T11:36:10.066Z,4.20
2023-05-05T11:38:40.184Z,5.10
2023-05-05T11:41:10.284Z,4.60
2023-05-05T11:43:37.399Z,4.57
2023-05-05T11:46:16.103Z,5.23
2023-05-05T11:48:51.802Z,5.23
2023-05-05T11:51:19.523Z,5.70
2023-05-05T11:53:49.207Z,4.07
2023-05-05T11:56:22.204Z,4.03
2023-05-05T11:58:49.940Z,4.30
2023-05-05T12:01:17.064Z,4.10
2023-05-05T12:03:46.068Z,4.30
2023-05-05T12:06:13.685Z,3.93
2023-05-05T12:08:42.100Z,4.00
2023-05-05T12:11:10.866Z,4.00
2023-05-05T12:13:37.915Z,4.13
2023-05-05T12:16:12.393Z,5.43
2023-05-05T12:18:40.625Z,3.70
2023-05-05T12:21:20.649Z,3.80
2023-05-05T12:23:47.864Z,4.07
2023-05-05T12:26:29.367Z,3.73
2023-05-05T12:29:00.714Z,3.87
2023-05-05T12:31:41.995Z,4.07
2023-05-05T12:34:10.578Z,3.97
2023-05-05T12:36:38.376Z,3.53
2023-05-05T12:39:05.830Z,3.80
2023-05-05T12:41:33.530Z,3.70
2023-05-05T12:44:02.064Z,4.20
2023-05-05T12:46:30.158Z,3.60
2023-05-05T12:49:01.776Z,3.80
2023-05-05T12:51:28.761Z,3.57
2023-05-05T12:54:12.525Z,3.77
2023-05-05T12:56:44.994Z,4.00
2023-05-05T12:59:33.224Z,4.43
2023-05-05T13:02:04.634Z,3.57
2023-05-05T13:04:31.889Z,3.60
2023-05-05T13:07:11.905Z,3.87
2023-05-05T13:09:39.516Z,5.57
2023-05-05T13:12:08.874Z,3.90
2023-05-05T13:14:36.756Z,3.60
2023-05-05T13:17:03.637Z,4.63
2023-05-05T13:19:30.880Z,3.70
2023-05-05T13:21:58.879Z,3.43
2023-05-05T13:24:38.099Z,3.90
2023-05-05T13:27:06.220Z,3.80
2023-05-05T13:29:33.874Z,3.40
2023-05-05T13:32:01.239Z,3.47
2023-05-05T13:34:28.493Z,3.13
2023-05-05T13:36:55.665Z,3.33
2023-05-05T13:39:22.815Z,3.50
2023-05-05T13:41:49.862Z,3.57
2023-05-05T13:44:17.269Z,3.63
2023-05-05T13:46:44.681Z,3.33
2023-05-05T13:49:11.733Z,3.27
2023-05-05T13:51:39.372Z,3.77
2023-05-05T13:54:07.568Z,3.67
2023-05-05T13:56:35.256Z,3.40
2023-05-05T13:59:02.708Z,4.17
2023-05-05T14:01:30.681Z,3.37
2023-05-05T14:03:58.392Z,3.80
2023-05-05T14:06:26.145Z,4.00
2023-05-05T14:08:53.371Z,3.60
2023-05-05T14:11:23.299Z,3.37
2023-05-05T14:13:50.283Z,3.53
2023-05-05T14:16:17.165Z,3.57
2023-05-05T14:18:44.051Z,3.77
2023-05-05T14:21:11.659Z,3.73
2023-05-05T14:23:38.453Z,4.93
2023-05-05T14:26:05.749Z,3.80
2023-05-05T14:28:32.692Z,3.33
2023-05-05T14:30:59.691Z,3.80
2023-05-05T14:33:26.825Z,3.60
2023-05-05T14:35:53.721Z,3.87
2023-05-05T14:38:20.753Z,3.73
2023-05-05T14:40:47.594Z,3.40
2023-05-05T14:43:14.450Z,3.30
2023-05-05T14:45:41.693Z,3.70
2023-05-05T14:48:08.844Z,3.70
2023-05-05T14:50:35.917Z,3.43
2023-05-05T14:53:02.884Z,3.60
2023-05-05T14:55:29.881Z,3.70
2023-05-05T14:57:56.975Z,3.50
2023-05-05T15:00:24.083Z,3.60
2023-05-05T15:02:51.155Z,3.87
2023-05-05T15:05:18.477Z,3.43
2023-05-05T15:07:45.374Z,3.50
2023-05-05T15:10:12.472Z,4.00
2023-05-05T15:12:39.485Z,3.47
2023-05-05T15:15:09.850Z,3.63
2023-05-05T15:17:38.993Z,4.00
2023-05-05T15:20:06.994Z,4.63
2023-05-05T15:22:34.255Z,3.60
2023-05-05T15:25:01.982Z,3.87
2023-05-05T15:27:30.205Z,3.70
2023-05-05T15:29:57.083Z,3.30
2023-05-05T15:32:24.088Z,3.70
2023-05-05T15:34:51.118Z,3.87
2023-05-05T15:37:18.385Z,4.33
2023-05-05T15:39:45.442Z,4.00
2023-05-05T15:42:12.445Z,3.53
2023-05-05T15:44:39.252Z,3.43
2023-05-05T15:47:07.255Z,3.90
2023-05-05T15:49:34.097Z,3.80
2023-05-05T15:52:02.930Z,3.80
2023-05-05T15:54:32.057Z,3.90
2023-05-05T15:56:58.880Z,3.70
2023-05-05T15:59:26.656Z,3.87
2023-05-05T16:01:53.596Z,3.70
2023-05-05T16:04:20.540Z,4.07
2023-05-05T16:06:47.426Z,4.13
2023-05-05T16:09:14.609Z,3.90
2023-05-05T16:11:41.549Z,3.53
2023-05-05T16:14:08.476Z,3.60
2023-05-05T16:16:35.613Z,4.30
2023-05-05T16:19:02.728Z,3.90
2023-05-05T16:21:29.474Z,3.50
2023-05-05T16:23:56.954Z,3.67
2023-05-05T16:26:23.982Z,4.30
2023-05-05T16:28:51.197Z,3.60
2023-05-05T16:31:20.831Z,3.77
2023-05-05T16:33:47.950Z,3.40
2023-05-05T16:36:14.910Z,4.40
2023-05-05T16:38:42.250Z,3.40
2023-05-05T16:41:09.136Z,3.63
2023-05-05T16:43:38.946Z,3.60
2023-05-05T16:46:06.926Z,3.87
2023-05-05T16:48:34.030Z,3.67
2023-05-05T16:51:01.060Z,3.37
2023-05-05T16:53:27.929Z,4.00
2023-05-05T16:55:54.794Z,3.23
2023-05-05T16:58:25.502Z,3.57
2023-05-05T17:00:52.684Z,3.60
2023-05-05T17:03:22.918Z,4.00
2023-05-05T17:05:52.985Z,3.70
2023-05-05T17:08:20.290Z,4.07
2023-05-05T17:10:47.624Z,3.53
2023-05-05T17:13:14.968Z,3.30
2023-05-05T17:15:43.839Z,3.60
2023-05-05T17:18:11.357Z,3.57
2023-05-05T17:20:38.221Z,3.77
2023-05-05T17:23:05.569Z,4.10
2023-05-05T17:25:32.459Z,3.60
2023-05-05T17:27:59.414Z,4.20
2023-05-05T17:30:26.711Z,3.93
2023-05-05T17:32:53.838Z,4.03
2023-05-05T17:35:21.703Z,3.50
2023-05-05T17:37:48.735Z,3.60
2023-05-05T17:40:15.846Z,3.63
2023-05-05T17:42:42.808Z,3.53
2023-05-05T17:45:10.698Z,3.30
2023-05-05T17:47:38.502Z,4.07
2023-05-05T17:50:06.142Z,4.13
2023-05-05T17:52:33.174Z,3.70
2023-05-05T17:54:59.975Z,3.90
2023-05-05T17:57:27.333Z,3.97
2023-05-05T17:59:54.542Z,4.20
2023-05-05T18:02:21.597Z,4.23
2023-05-05T18:04:48.808Z,4.47
2023-05-05T18:07:15.915Z,4.10
2023-05-05T18:09:42.994Z,4.67
2023-05-05T18:12:10.114Z,4.17
2023-05-05T18:14:37.281Z,4.30
2023-05-05T18:17:05.026Z,4.93
2023-05-05T18:19:32.187Z,4.47
2023-05-05T18:21:59.420Z,5.20
2023-05-05T18:24:29.839Z,4.20
2023-05-05T18:26:56.984Z,4.57
2023-05-05T18:29:24.153Z,4.27
2023-05-05T18:31:54.711Z,4.73
2023-05-05T18:34:22.193Z,4.70
2023-05-05T18:36:51.545Z,4.60
2023-05-05T18:39:18.499Z,4.70
2023-05-05T18:41:45.381Z,4.43
2023-05-05T18:44:12.318Z,4.93
2023-05-05T18:46:39.997Z,4.73
2023-05-05T18:49:06.925Z,5.43
2023-05-05T18:51:33.715Z,5.37
2023-05-05T18:54:03.549Z,4.67
2023-05-05T18:56:30.900Z,5.07
2023-05-05T18:58:58.142Z,5.20
2023-05-05T19:01:31.579Z,5.63
2023-05-05T19:03:58.788Z,5.27
2023-05-05T19:06:25.858Z,5.70
2023-05-05T19:08:52.698Z,5.93
2023-05-05T19:11:20.037Z,6.03
2023-05-05T19:13:47.081Z,5.17
2023-05-05T19:16:14.076Z,5.93
2023-05-05T19:18:41.399Z,5.43
2023-05-05T19:21:08.306Z,5.30
2023-05-05T19:23:36.442Z,5.87
2023-05-05T19:26:06.856Z,4.63
2023-05-05T19:28:34.067Z,4.80
2023-05-05T19:31:01.436Z,5.27
2023-05-05T19:33:28.587Z,5.17
2023-05-05T19:35:55.573Z,4.53
2023-05-05T19:38:22.576Z,4.60
2023-05-05T19:40:49.811Z,4.50
2023-05-05T19:43:16.818Z,5.67
2023-05-05T19:45:43.769Z,4.70
2023-05-05T19:48:10.811Z,4.97
2023-05-05T19:50:38.024Z,5.20
2023-05-05T19:53:05.342Z,5.57
2023-05-05T19:55:33.601Z,5.77
2023-05-05T19:58:00.846Z,5.50
2023-05-05T20:00:30.533Z,5.70
2023-05-05T20:02:57.792Z,5.40
2023-05-05T20:05:25.155Z,6.07
2023-05-05T20:07:52.281Z,5.60
2023-05-05T20:10:19.417Z,5.87
2023-05-05T20:12:49.234Z,6.20
2023-05-05T20:15:19.763Z,6.07
2023-05-05T20:17:47.996Z,5.87
2023-05-05T20:20:22.253Z,7.13
2023-05-05T20:22:49.606Z,5.70
2023-05-05T20:25:17.171Z,5.70
2023-05-05T20:27:45.713Z,6.30
2023-05-05T20:30:14.188Z,6.80
2023-05-05T20:32:41.797Z,6.47
2023-05-05T20:35:09.330Z,5.87
2023-05-05T20:37:36.112Z,6.90
2023-05-05T20:40:03.031Z,6.43
2023-05-05T20:42:30.320Z,6.90
2023-05-05T20:44:57.453Z,7.00
2023-05-05T20:47:24.526Z,6.37
2023-05-05T20:49:52.638Z,6.50
2023-05-05T20:52:19.927Z,6.13
2023-05-05T20:54:46.854Z,6.60
2023-05-05T20:57:13.970Z,6.50
2023-05-05T20:59:41.032Z,6.77
2023-05-05T21:02:07.996Z,6.33
2023-05-05T21:04:35.009Z,6.53
2023-05-05T21:07:02.208Z,7.10
2023-05-05T21:09:29.376Z,6.80
2023-05-05T21:11:56.533Z,6.83
2023-05-05T21:14:24.009Z,6.57
2023-05-05T21:16:52.320Z,7.00
2023-05-05T21:19:19.298Z,6.80
2023-05-05T21:21:46.713Z,6.63
2023-05-05T21:24:13.844Z,6.40
2023-05-05T21:26:44.677Z,6.63
2023-05-05T21:29:12.123Z,6.00
2023-05-05T21:31:39.603Z,6.10
2023-05-05T21:34:06.513Z,6.20
2023-05-05T21:36:34.121Z,5.77
2023-05-05T21:39:01.747Z,6.70
2023-05-05T21:41:29.016Z,5.93
2023-05-05T21:43:56.000Z,6.43
2023-05-05T21:46:24.014Z,6.37
2023-05-05T21:48:51.057Z,5.97
2023-05-05T21:51:18.031Z,6.13
2023-05-05T21:53:45.148Z,6.30
2023-05-05T21:56:12.230Z,6.20
2023-05-05T21:58:39.177Z,6.27
2023-05-05T22:01:06.251Z,5.63
2023-05-05T22:03:35.552Z,6.30
2023-05-05T22:06:02.553Z,6.47
2023-05-05T22:08:29.630Z,6.13
2023-05-05T22:10:56.496Z,7.37
2023-05-05T22:13:23.518Z,5.97
2023-05-05T22:15:50.616Z,5.90
2023-05-05T22:18:17.810Z,6.83
2023-05-05T22:20:45.142Z,6.27
2023-05-05T22:23:12.081Z,6.83
2023-05-05T22:25:38.963Z,6.03
2023-05-05T22:28:05.838Z,6.37
2023-05-05T22:30:32.808Z,6.70
2023-05-05T22:33:02.755Z,6.20
2023-05-05T22:35:29.991Z,6.83
2023-05-05T22:37:57.091Z,6.63
2023-05-05T22:40:24.208Z,6.50
2023-05-05T22:42:51.245Z,6.70
2023-05-05T22:45:18.207Z,6.80
2023-05-05T22:47:45.451Z,6.00
2023-05-05T22:50:12.532Z,6.37
2023-05-05T22:52:39.463Z,5.90
2023-05-05T22:55:06.698Z,5.53
2023-05-05T22:57:36.812Z,6.27
2023-05-05T23:00:05.569Z,6.07
2023-05-05T23:02:32.502Z,6.70
2023-05-05T23:04:59.652Z,6.20
2023-05-05T23:07:26.711Z,6.60
2023-05-05T23:09:53.796Z,6.50
2023-05-05T23:12:21.107Z,6.13
2023-05-05T23:14:48.718Z,6.67
2023-05-05T23:17:16.754Z,6.87
2023-05-05T23:19:43.786Z,6.20
2023-05-05T23:22:10.685Z,6.73
2023-05-05T23:24:37.829Z,7.10
2023-05-05T23:27:04.769Z,7.60
2023-05-05T23:29:32.957Z,6.73
2023-05-05T23:31:59.771Z,6.77
2023-05-05T23:34:29.173Z,6.87
2023-05-05T23:36:56.342Z,7.07
2023-05-05T23:39:23.466Z,7.27
2023-05-05T23:41:50.332Z,7.40
2023-05-05T23:44:17.297Z,6.97
2023-05-05T23:46:44.157Z,6.97
2023-05-05T23:49:11.165Z,6.80
2023-05-05T23:51:38.059Z,7.00
2023-05-05T23:54:04.881Z,6.40
2023-05-05T23:56:31.649Z,7.27
2023-05-05T23:58:58.405Z,6.83
